Time;durP1;ratioP1;P1;durP2;ratioP2;P2;SDS_P1;SDS_P2;PMS_P1;PMS_P2;Temp;Humidity;BMP_temperature;BMP_pressure;BME280_temperature;BME280_humidity;BME280_pressure;Samples;Min_cycle;Max_cycle;Signal;HPM_P1;HPM_P2
2023/05/31 00:01:22;;;;;;;7.60;2.60;;;;;;;15.62;45.81;96606.38;5099278;28;20044;-87
2023/05/31 00:03:49;;;;;;;15.02;3.10;;;;;;;15.54;43.95;96612.78;5098186;28;20072;-91
2023/05/31 00:06:16;;;;;;;11.05;2.67;;;;;;;15.55;44.79;96610.84;5098228;28;20055;-90
2023/05/31 00:08:44;;;;;;;7.40;2.35;;;;;;;15.55;45.42;96613.56;5097657;28;20051;-90
2023/05/31 00:11:10;;;;;;;10.88;3.00;;;;;;;15.50;45.12;96608.31;5097642;28;20063;-88
2023/05/31 00:13:38;;;;;;;16.00;3.05;;;;;;;15.50;45.37;96608.31;5097970;28;20040;-86
2023/05/31 00:16:05;;;;;;;10.13;2.90;;;;;;;15.43;45.04;96608.09;5097984;28;20057;-87
2023/05/31 00:18:31;;;;;;;12.80;3.20;;;;;;;15.24;45.00;96605.91;5096487;28;20074;-88
2023/05/31 00:20:58;;;;;;;8.88;2.47;;;;;;;15.25;44.85;96602.84;5097437;28;20071;-90
2023/05/31 00:23:24;;;;;;;5.25;2.00;;;;;;;15.25;45.16;96608.34;5095823;28;20458;-88
2023/05/31 00:25:52;;;;;;;7.03;2.35;;;;;;;15.26;45.32;96604.44;5095062;28;20056;-88
2023/05/31 00:28:19;;;;;;;6.93;2.10;;;;;;;15.30;45.68;96610.84;5092986;28;20047;-89
2023/05/31 00:30:45;;;;;;;3.58;2.00;;;;;;;15.15;45.44;96608.78;5095301;28;20044;-86
2023/05/31 00:33:12;;;;;;;5.85;2.30;;;;;;;15.08;43.37;96619.50;5097526;28;20048;-88
2023/05/31 00:35:39;;;;;;;13.32;2.90;;;;;;;15.05;43.45;96620.19;5099069;28;20437;-87
2023/05/31 00:38:07;;;;;;;10.50;2.65;;;;;;;15.03;43.83;96619.72;5094461;28;20052;-88
2023/05/31 00:40:34;;;;;;;6.45;2.20;;;;;;;15.07;43.78;96623.38;5102081;28;20048;-86
2023/05/31 00:43:02;;;;;;;10.63;2.70;;;;;;;15.06;44.57;96622.59;5098542;28;20075;-90
2023/05/31 00:45:29;;;;;;;3.75;1.85;;;;;;;15.08;45.21;96614.00;5098795;28;20047;-89
2023/05/31 00:47:56;;;;;;;10.88;2.58;;;;;;;15.09;45.25;96616.44;5098643;28;20480;-88
2023/05/31 00:50:23;;;;;;;5.90;2.55;;;;;;;14.96;43.96;96616.75;5097845;28;20036;-89
2023/05/31 00:52:52;;;;;;;4.18;2.25;;;;;;;14.94;45.17;96614.34;5099154;28;20048;-87
2023/05/31 00:55:19;;;;;;;4.05;1.98;;;;;;;14.96;45.22;96616.75;5099055;28;20044;-87
2023/05/31 00:57:47;;;;;;;6.55;2.25;;;;;;;14.76;44.12;96616.44;5096953;28;20043;-89
2023/05/31 01:00:16;;;;;;;8.65;2.42;;;;;;;14.75;44.28;96619.53;5097812;28;20095;-90
2023/05/31 01:02:43;;;;;;;10.52;2.72;;;;;;;14.82;45.26;96622.53;5097753;28;20048;-91
2023/05/31 01:05:09;;;;;;;4.22;1.92;;;;;;;14.80;44.65;96625.59;5097448;28;20048;-87
2023/05/31 01:07:37;;;;;;;4.63;1.92;;;;;;;14.87;45.41;96614.88;5097770;28;20052;-88
2023/05/31 01:10:05;;;;;;;5.80;2.58;;;;;;;14.90;45.59;96612.63;5098899;28;20055;-88
2023/05/31 01:12:42;;;;;;;4.57;2.30;;;;;;;14.93;44.70;96611.91;5098452;28;20044;-88
2023/05/31 01:15:15;;;;;;;5.72;2.25;;;;;;;14.84;45.97;96614.78;5097042;28;20047;-89
2023/05/31 01:17:48;;;;;;;9.32;2.03;;;;;;;14.82;46.25;96606.06;5095261;28;20417;-88
2023/05/31 01:20:19;;;;;;;4.57;2.22;;;;;;;14.82;46.28;96608.81;5097557;28;20095;-88
2023/05/31 01:23:11;;;;;;;4.38;1.98;;;;;;;14.79;46.24;96606.75;5096274;28;20052;-88
2023/05/31 01:26:12;;;;;;;4.97;2.03;;;;;;;14.73;46.00;96603.44;5096241;28;20124;-88
2023/05/31 01:28:42;;;;;;;4.30;1.95;;;;;;;14.71;45.68;96597.47;5097119;28;20072;-87
2023/05/31 01:31:12;;;;;;;5.57;2.13;;;;;;;14.67;45.87;96599.31;5094294;28;20040;-88
2023/05/31 01:33:40;;;;;;;8.20;2.38;;;;;;;14.61;46.76;96595.16;5101892;28;20055;-87
2023/05/31 01:36:06;;;;;;;11.90;2.70;;;;;;;14.57;46.89;96591.53;5104433;28;20382;-88
2023/05/31 01:38:33;;;;;;;4.82;2.22;;;;;;;14.55;47.61;96593.78;5104608;28;20047;-89
2023/05/31 01:41:00;;;;;;;4.65;2.20;;;;;;;14.51;46.63;96595.59;5098135;28;20052;-86
2023/05/31 01:43:28;;;;;;;5.05;2.13;;;;;;;14.51;48.44;96592.84;5103723;28;20047;-88
2023/05/31 01:45:57;;;;;;;4.47;1.92;;;;;;;14.51;47.46;96590.09;5103511;28;20055;-88
2023/05/31 01:48:25;;;;;;;3.65;1.70;;;;;;;14.47;47.55;96589.16;5101314;28;20055;-85
2023/05/31 01:50:53;;;;;;;8.07;2.40;;;;;;;14.42;48.12;96589.38;5102999;28;20040;-85
2023/05/31 01:53:20;;;;;;;5.45;2.13;;;;;;;14.40;47.09;96577.94;5099409;28;20044;-86
2023/05/31 01:55:48;;;;;;;7.13;2.00;;;;;;;14.42;47.08;96587.44;5101910;28;20068;-86
2023/05/31 01:58:17;;;;;;;10.73;2.58;;;;;;;14.41;48.10;96587.75;5100558;28;20326;-88
2023/05/31 02:00:44;;;;;;;17.30;3.17;;;;;;;14.39;48.65;96587.31;5100735;28;20056;-88
2023/05/31 02:03:12;;;;;;;4.20;2.05;;;;;;;14.36;48.25;96586.84;5103498;28;20052;-85
2023/05/31 02:05:55;;;;;;;6.50;2.05;;;;;;;14.29;48.61;96583.84;5102597;28;20051;-85
2023/05/31 02:08:21;;;;;;;4.53;2.00;;;;;;;14.28;48.70;96582.25;5102421;28;21823;-87
2023/05/31 02:10:47;;;;;;;4.50;1.88;;;;;;;14.26;48.11;96581.78;5102780;28;20123;-88
2023/05/31 02:13:14;;;;;;;12.35;2.95;;;;;;;14.21;47.60;96582.00;5102664;28;20044;-86
2023/05/31 02:15:41;;;;;;;5.47;2.00;;;;;;;14.17;48.74;96589.25;5102459;28;20052;-87
2023/05/31 02:18:07;;;;;;;4.07;2.25;;;;;;;14.10;48.28;96586.28;5102991;28;20077;-86
2023/05/31 02:20:35;;;;;;;3.90;1.90;;;;;;;14.08;48.85;96585.78;5102918;28;20044;-87
2023/05/31 02:23:02;;;;;;;5.32;2.30;;;;;;;14.04;48.34;96588.41;5103318;28;20048;-87
2023/05/31 02:25:28;;;;;;;17.70;4.28;;;;;;;13.99;49.82;96580.41;5103268;28;20059;-87
2023/05/31 02:27:55;;;;;;;5.05;1.83;;;;;;;13.95;50.21;96578.66;5102993;28;20058;-88
2023/05/31 02:30:21;;;;;;;4.18;1.85;;;;;;;13.95;49.39;96578.66;5103539;28;20048;-86
2023/05/31 02:32:48;;;;;;;3.95;1.90;;;;;;;13.94;49.69;96582.50;5103199;28;20055;-86
2023/05/31 02:35:14;;;;;;;3.72;1.80;;;;;;;13.91;50.56;96581.25;5103640;28;20040;-86
2023/05/31 02:37:42;;;;;;;3.95;2.45;;;;;;;13.87;49.71;96583.06;5099989;28;20114;-85
2023/05/31 02:40:09;;;;;;;8.23;2.13;;;;;;;13.82;49.76;96586.78;5102808;28;20417;-85
2023/05/31 02:42:36;;;;;;;4.63;2.10;;;;;;;13.74;49.23;96584.94;5102666;28;20049;-90
2023/05/31 02:45:03;;;;;;;4.47;2.30;;;;;;;13.69;49.70;96590.59;5101405;28;20048;-85
2023/05/31 02:47:29;;;;;;;4.25;2.15;;;;;;;13.68;50.72;96589.00;5095365;28;20041;-85
2023/05/31 02:49:56;;;;;;;5.80;1.88;;;;;;;13.64;50.02;96595.47;5102501;28;20043;-88
2023/05/31 02:52:23;;;;;;;6.25;2.20;;;;;;;13.59;51.33;96590.97;5101961;28;20056;-88
2023/05/31 02:54:51;;;;;;;8.38;2.78;;;;;;;13.57;51.24;96590.50;5103253;28;20069;-85
2023/05/31 02:57:17;;;;;;;3.88;1.80;;;;;;;13.54;51.21;96586.50;5100890;28;20644;-85
2023/05/31 02:59:44;;;;;;;6.00;2.22;;;;;;;13.52;51.64;96593.41;5102697;28;20759;-87
2023/05/31 03:02:11;;;;;;;5.07;2.20;;;;;;;13.50;52.13;96599.22;5101688;28;20481;-88
2023/05/31 03:04:37;;;;;;;11.88;2.95;;;;;;;13.50;52.14;96590.22;5102194;28;20131;-85
2023/05/31 03:07:04;;;;;;;11.77;2.80;;;;;;;13.45;52.37;96593.94;5101587;28;20047;-85
2023/05/31 03:09:31;;;;;;;4.25;2.10;;;;;;;13.43;52.79;96595.44;5102254;28;20044;-88
2023/05/31 03:11:59;;;;;;;5.18;2.20;;;;;;;13.47;52.78;96601.84;5103296;28;20505;-87
2023/05/31 03:14:25;;;;;;;5.05;2.30;;;;;;;13.40;52.95;96598.81;5102197;28;20046;-87
2023/05/31 03:16:51;;;;;;;7.60;2.13;;;;;;;13.41;52.86;96603.94;5101672;28;20081;-87
2023/05/31 03:19:18;;;;;;;4.60;2.25;;;;;;;13.36;52.42;96606.88;5102620;28;20040;-86
2023/05/31 03:21:45;;;;;;;5.30;2.30;;;;;;;13.32;52.86;96612.22;5102839;28;20051;-87
2023/05/31 03:24:11;;;;;;;5.60;2.20;;;;;;;13.29;52.22;96599.19;5102673;28;20127;-86
2023/05/31 03:26:38;;;;;;;3.78;1.90;;;;;;;13.22;51.52;96598.91;5100871;28;20040;-89
2023/05/31 03:29:05;;;;;;;3.88;2.00;;;;;;;13.21;52.74;96601.94;5097077;28;20055;-86
2023/05/31 03:31:32;;;;;;;6.00;3.13;;;;;;;13.14;52.94;96604.38;5102496;28;20103;-85
2023/05/31 03:33:59;;;;;;;7.93;2.55;;;;;;;13.09;53.30;96610.81;5100890;28;20044;-87
2023/05/31 03:36:25;;;;;;;4.88;2.13;;;;;;;13.04;53.24;96605.53;5100405;28;20794;-86
2023/05/31 03:38:52;;;;;;;4.85;2.42;;;;;;;12.99;53.82;96605.72;5098324;28;20054;-87
2023/05/31 03:41:18;;;;;;;7.15;2.47;;;;;;;12.99;54.10;96603.78;5095445;28;20043;-86
2023/05/31 03:43:45;;;;;;;7.63;2.53;;;;;;;12.95;54.59;96608.31;5099640;28;20134;-87
2023/05/31 03:46:12;;;;;;;4.10;2.20;;;;;;;12.93;54.24;96604.28;5094456;28;20360;-85
2023/05/31 03:48:39;;;;;;;9.57;3.00;;;;;;;12.93;54.20;96604.28;5097726;28;20062;-88
2023/05/31 03:51:06;;;;;;;7.53;2.25;;;;;;;12.89;53.97;96604.13;5093564;28;20162;-88
2023/05/31 03:53:32;;;;;;;4.25;2.45;;;;;;;12.87;53.88;96606.41;5096951;28;20044;-86
2023/05/31 03:55:59;;;;;;;6.72;2.55;;;;;;;12.88;54.11;96605.25;5098882;28;20044;-88
2023/05/31 03:58:25;;;;;;;6.00;2.08;;;;;;;12.86;54.97;96612.19;5098698;28;20102;-88
2023/05/31 04:00:52;;;;;;;4.95;2.60;;;;;;;12.84;55.29;96603.50;5098096;28;20047;-89
2023/05/31 04:03:20;;;;;;;5.80;2.03;;;;;;;12.83;55.24;96612.84;5095946;28;20417;-87
2023/05/31 04:05:47;;;;;;;7.65;2.58;;;;;;;12.85;55.22;96613.34;5094820;28;20044;-86
2023/05/31 04:08:13;;;;;;;5.18;2.20;;;;;;;12.91;55.21;96606.56;5098928;28;20043;-88
2023/05/31 04:10:40;;;;;;;4.15;1.90;;;;;;;12.95;55.30;96607.50;5101923;28;20097;-88
2023/05/31 04:13:06;;;;;;;5.70;3.05;;;;;;;12.98;54.91;96606.84;5100181;28;20389;-86
2023/05/31 04:15:33;;;;;;;5.28;2.13;;;;;;;13.00;55.00;96612.81;5101080;28;20502;-86
2023/05/31 04:17:59;;;;;;;4.07;2.20;;;;;;;12.99;54.92;96605.72;5101004;28;20040;-89
2023/05/31 04:20:27;;;;;;;4.78;1.85;;;;;;;12.97;54.25;96610.72;5099573;28;20055;-88
2023/05/31 04:22:54;;;;;;;14.75;3.10;;;;;;;12.99;54.58;96614.72;5098314;28;20051;-90
2023/05/31 04:25:20;;;;;;;4.18;2.20;;;;;;;12.97;55.33;96616.19;5099105;28;20052;-87
2023/05/31 04:27:49;;;;;;;7.22;2.38;;;;;;;12.96;55.44;96617.31;5100084;28;20525;-86
2023/05/31 04:30:16;;;;;;;6.47;2.38;;;;;;;12.93;56.22;96620.69;5099430;28;20067;-88
2023/05/31 04:32:44;;;;;;;6.00;2.00;;;;;;;12.92;56.63;96621.81;5098207;28;20044;-87
2023/05/31 04:35:10;;;;;;;5.13;2.22;;;;;;;12.93;57.81;96626.16;5100651;28;20040;-87
2023/05/31 04:37:39;;;;;;;5.60;2.03;;;;;;;12.93;58.45;96620.69;5099453;28;20314;-88
2023/05/31 04:40:09;;;;;;;5.53;2.33;;;;;;;12.92;57.55;96619.88;5099024;28;20142;-88
2023/05/31 04:42:36;;;;;;;5.35;1.88;;;;;;;12.95;57.57;96623.91;5099581;28;20051;-88
2023/05/31 04:45:04;;;;;;;6.20;2.47;;;;;;;12.96;57.83;96630.97;5099709;28;20059;-88
2023/05/31 04:47:31;;;;;;;5.72;2.15;;;;;;;12.98;59.17;96626.78;5099261;28;20044;-88
2023/05/31 04:50:01;;;;;;;6.43;2.30;;;;;;;12.89;59.19;96622.47;5100086;28;20534;-90
2023/05/31 04:52:32;;;;;;;16.33;3.00;;;;;;;13.01;58.04;96622.59;5097109;28;20055;-91
2023/05/31 04:55:01;;;;;;;10.40;3.35;;;;;;;13.00;57.05;96626.47;5097903;28;20040;-91
2023/05/31 04:57:29;;;;;;;18.70;3.30;;;;;;;13.00;55.82;96621.81;5096388;28;21864;-89
2023/05/31 04:59:56;;;;;;;11.13;2.70;;;;;;;13.05;57.21;96629.03;5097511;28;20055;-89
2023/05/31 05:02:23;;;;;;;7.78;2.70;;;;;;;13.20;57.17;96620.25;5094288;28;20063;-90
2023/05/31 05:04:50;;;;;;;15.63;3.60;;;;;;;13.25;55.81;96620.09;5096813;28;20040;-90
2023/05/31 05:07:17;;;;;;;16.50;3.00;;;;;;;13.41;55.50;96625.03;5096940;28;20052;-90
2023/05/31 05:09:44;;;;;;;9.25;2.30;;;;;;;13.39;54.65;96627.28;5089018;28;20051;-89
2023/05/31 05:12:12;;;;;;;7.95;2.60;;;;;;;13.48;54.59;96628.88;5096139;28;20071;-88
2023/05/31 05:14:39;;;;;;;4.43;2.17;;;;;;;13.47;55.93;96632.75;5097395;28;20078;-87
2023/05/31 05:17:06;;;;;;;5.22;2.35;;;;;;;13.50;52.82;96628.53;5095977;28;20112;-89
2023/05/31 05:19:32;;;;;;;7.03;2.20;;;;;;;13.70;54.53;96633.25;5094273;28;20052;-89
2023/05/31 05:21:59;;;;;;;5.88;2.17;;;;;;;13.83;54.97;96626.72;5093804;28;20036;-89
2023/05/31 05:24:26;;;;;;;8.15;2.20;;;;;;;13.78;53.17;96629.66;5095840;28;20044;-88
2023/05/31 05:26:52;;;;;;;5.40;2.40;;;;;;;13.90;54.71;96633.63;5090502;28;20075;-87
2023/05/31 05:29:20;;;;;;;6.40;2.40;;;;;;;14.02;53.54;96630.94;5092195;28;20512;-85
2023/05/31 05:31:47;;;;;;;7.10;2.45;;;;;;;13.92;50.87;96625.84;5095421;28;20059;-87
2023/05/31 05:34:14;;;;;;;6.18;2.17;;;;;;;14.08;54.54;96632.34;5093755;28;20047;-87
2023/05/31 05:36:40;;;;;;;5.55;2.50;;;;;;;14.12;52.26;96627.81;5094216;28;20052;-88
2023/05/31 05:39:07;;;;;;;6.28;2.83;;;;;;;14.13;51.21;96629.41;5091752;28;20153;-87
2023/05/31 05:41:34;;;;;;;6.05;2.30;;;;;;;14.14;51.13;96620.03;5094846;28;20047;-88
2023/05/31 05:44:02;;;;;;;10.88;2.70;;;;;;;14.24;50.91;96621.59;5093074;28;20054;-91
2023/05/31 05:46:30;;;;;;;9.32;2.38;;;;;;;14.28;49.62;96634.28;5093347;28;20043;-90
2023/05/31 05:48:57;;;;;;;10.35;2.35;;;;;;;14.29;50.61;96637.81;5093038;28;20082;-90
2023/05/31 05:51:24;;;;;;;14.07;2.92;;;;;;;14.43;50.96;96637.56;5093749;28;20048;-90
2023/05/31 05:53:50;;;;;;;8.30;2.50;;;;;;;14.58;51.88;96636.97;5094051;28;20523;-89
2023/05/31 05:56:18;;;;;;;5.90;2.53;;;;;;;14.54;50.12;96633.28;5092760;28;20044;-89
2023/05/31 05:58:46;;;;;;;7.63;2.40;;;;;;;14.67;50.72;96636.88;5094665;28;20046;-90
2023/05/31 06:01:18;;;;;;;8.35;2.50;;;;;;;14.70;49.76;96631.50;5094061;28;20501;-88
2023/05/31 06:03:46;;;;;;;9.27;2.30;;;;;;;14.65;49.55;96642.69;5088421;28;20054;-87
2023/05/31 06:06:13;;;;;;;6.28;2.47;;;;;;;14.67;49.37;96643.16;5092769;28;20055;-90
2023/05/31 06:08:39;;;;;;;10.95;3.03;;;;;;;14.74;49.61;96648.09;5093450;28;20135;-89
2023/05/31 06:11:06;;;;;;;10.30;2.40;;;;;;;14.85;49.79;96644.59;5093307;28;20059;-89
2023/05/31 06:13:32;;;;;;;6.15;2.40;;;;;;;15.01;51.51;96641.19;5093289;28;20047;-89
2023/05/31 06:15:59;;;;;;;6.65;2.63;;;;;;;15.04;49.78;96640.53;5092109;28;20043;-89
2023/05/31 06:18:25;;;;;;;8.18;2.63;;;;;;;15.11;50.04;96643.50;5092177;28;20044;-88
2023/05/31 06:20:55;;;;;;;6.78;2.58;;;;;;;15.14;50.18;96645.59;5095400;28;20047;-87
2023/05/31 06:23:21;;;;;;;7.32;2.50;;;;;;;15.10;49.63;96636.44;5096122;28;20044;-87
2023/05/31 06:25:48;;;;;;;11.82;2.30;;;;;;;15.17;49.65;96639.41;5098213;28;20449;-89
2023/05/31 06:28:15;;;;;;;5.40;2.17;;;;;;;15.32;49.65;96635.19;5097192;28;20513;-87
2023/05/31 06:30:42;;;;;;;8.55;2.40;;;;;;;15.35;49.21;96646.28;5098336;28;20063;-87
2023/05/31 06:33:09;;;;;;;11.32;2.55;;;;;;;15.44;50.10;96643.44;5096844;28;20093;-87
2023/05/31 06:35:35;;;;;;;8.38;2.30;;;;;;;15.40;48.40;96643.34;5097034;28;20043;-89
2023/05/31 06:38:03;;;;;;;8.10;2.80;;;;;;;15.46;48.53;96643.91;5097714;28;20677;-85
2023/05/31 06:40:30;;;;;;;9.15;2.60;;;;;;;15.56;47.63;96645.41;5097661;28;20505;-87
2023/05/31 06:42:57;;;;;;;7.22;2.60;;;;;;;15.55;47.63;96644.56;5097352;28;20044;-89
2023/05/31 06:45:25;;;;;;;5.35;2.15;;;;;;;15.72;47.86;96643.59;5096644;28;20485;-85
2023/05/31 06:47:51;;;;;;;10.63;4.20;;;;;;;15.83;47.85;96650.22;5097955;28;20048;-87
2023/05/31 06:50:18;;;;;;;8.27;2.60;;;;;;;15.92;47.67;96650.06;5095956;28;20047;-88
2023/05/31 06:52:44;;;;;;;5.55;2.13;;;;;;;15.99;48.99;96655.00;5096951;28;20043;-89
2023/05/31 06:55:12;;;;;;;7.45;2.38;;;;;;;16.00;46.98;96648.38;5095690;28;20502;-84
2023/05/31 06:57:39;;;;;;;6.70;2.30;;;;;;;15.98;46.23;96640.47;5099213;28;20047;-89
2023/05/31 07:00:07;;;;;;;8.82;2.70;;;;;;;16.04;47.14;96633.59;5099370;28;20047;-87
2023/05/31 07:02:33;;;;;;;7.47;2.40;;;;;;;16.10;46.34;96639.66;5098975;28;20066;-86
2023/05/31 07:05:00;;;;;;;7.80;2.35;;;;;;;16.27;46.04;96642.13;5097879;28;20051;-87
2023/05/31 07:07:26;;;;;;;9.40;2.53;;;;;;;16.30;46.30;96652.41;5097609;28;20421;-87
2023/05/31 07:09:53;;;;;;;6.93;2.72;;;;;;;16.33;46.91;96640.72;5098013;28;20048;-86
2023/05/31 07:12:21;;;;;;;6.95;2.58;;;;;;;16.46;46.05;96649.75;5097580;28;20050;-86
2023/05/31 07:14:47;;;;;;;10.18;2.60;;;;;;;16.61;47.38;96645.47;5097744;28;20062;-87
2023/05/31 07:17:13;;;;;;;5.03;2.28;;;;;;;16.75;45.55;96648.63;5097040;28;20047;-87
2023/05/31 07:19:47;;;;;;;9.50;2.80;;;;;;;16.77;45.75;96649.09;5097690;28;20494;-87
2023/05/31 07:22:15;;;;;;;5.63;2.72;;;;;;;16.87;46.09;96643.06;5094939;28;20043;-87
2023/05/31 07:24:41;;;;;;;8.00;2.55;;;;;;;16.95;46.12;96642.09;5097319;28;20051;-84
2023/05/31 07:27:08;;;;;;;6.60;2.75;;;;;;;17.08;46.43;96642.06;5096266;28;20055;-87
2023/05/31 07:29:36;;;;;;;7.43;2.83;;;;;;;17.22;45.51;96636.91;5097462;28;20050;-87
2023/05/31 07:32:03;;;;;;;8.35;2.58;;;;;;;17.35;46.66;96640.38;5098697;28;20103;-88
2023/05/31 07:34:29;;;;;;;7.40;2.40;;;;;;;17.43;44.49;96644.91;5098726;28;20044;-86
2023/05/31 07:36:57;;;;;;;5.72;2.63;;;;;;;17.41;45.11;96647.22;5097719;28;20126;-86
2023/05/31 07:39:23;;;;;;;7.03;2.35;;;;;;;17.51;44.69;96648.63;5095246;28;20386;-88
2023/05/31 07:41:50;;;;;;;8.43;2.67;;;;;;;17.59;44.59;96644.88;5093700;28;20052;-89
2023/05/31 07:44:18;;;;;;;6.95;2.58;;;;;;;17.69;44.30;96649.84;5098402;28;20048;-86
2023/05/31 07:46:46;;;;;;;5.13;2.00;;;;;;;17.89;45.89;96637.78;5090063;28;20048;-88
2023/05/31 07:49:12;;;;;;;7.53;2.60;;;;;;;17.94;44.41;96629.25;5096854;28;20035;-90
2023/05/31 07:51:39;;;;;;;9.52;2.90;;;;;;;18.05;43.60;96631.44;5097586;28;20417;-86
2023/05/31 07:54:05;;;;;;;8.57;2.47;;;;;;;18.00;43.05;96629.75;5092923;28;20051;-87
2023/05/31 07:56:32;;;;;;;6.10;2.35;;;;;;;18.11;43.28;96638.25;5097018;28;20048;-88
2023/05/31 07:58:59;;;;;;;9.45;2.60;;;;;;;18.31;43.00;96631.63;5095257;28;20044;-88
2023/05/31 08:01:26;;;;;;;8.63;2.65;;;;;;;18.27;42.64;96630.78;5095369;28;20040;-88
2023/05/31 08:03:55;;;;;;;8.35;2.33;;;;;;;18.49;42.89;96624.53;5095275;28;20051;-90
2023/05/31 08:06:22;;;;;;;6.38;2.50;;;;;;;18.65;42.48;96629.19;5097756;28;20051;-85
2023/05/31 08:08:48;;;;;;;8.95;2.40;;;;;;;18.93;43.53;96627.00;5100661;28;20055;-88
2023/05/31 08:11:15;;;;;;;8.43;2.70;;;;;;;19.13;42.99;96627.75;5100108;28;20558;-86
2023/05/31 08:13:41;;;;;;;10.57;2.83;;;;;;;19.16;40.42;96626.22;5100763;28;20048;-86
2023/05/31 08:16:08;;;;;;;9.25;3.35;;;;;;;19.38;40.51;96622.69;5099131;28;20056;-85
2023/05/31 08:18:34;;;;;;;4.20;2.30;;;;;;;19.67;40.71;96617.63;5099566;28;20052;-88
2023/05/31 08:21:02;;;;;;;10.35;3.13;;;;;;;19.82;40.29;96627.75;5099856;28;20055;-86
2023/05/31 08:23:29;;;;;;;6.60;2.58;;;;;;;19.91;40.78;96614.47;5097365;28;20051;-86
2023/05/31 08:25:56;;;;;;;8.82;2.60;;;;;;;19.92;39.96;96607.78;5099234;28;20567;-85
2023/05/31 08:28:22;;;;;;;8.38;2.40;;;;;;;20.15;39.61;96607.72;5099251;28;20479;-87
2023/05/31 08:30:49;;;;;;;4.90;2.35;;;;;;;20.43;39.82;96612.03;5098603;28;20040;-87
2023/05/31 08:33:15;;;;;;;6.32;2.63;;;;;;;20.56;39.17;96607.84;5098087;28;20068;-88
2023/05/31 08:35:42;;;;;;;7.57;2.75;;;;;;;20.64;38.70;96611.53;5098695;28;20044;-87
2023/05/31 08:38:10;;;;;;;8.13;2.50;;;;;;;20.76;41.09;96611.25;5098613;28;20052;-85
2023/05/31 08:40:36;;;;;;;8.32;2.95;;;;;;;20.75;38.78;96610.47;5099069;28;20048;-87
2023/05/31 08:43:07;;;;;;;8.52;2.63;;;;;;;20.90;39.07;96611.44;5097706;28;20044;-87
2023/05/31 08:45:35;;;;;;;6.72;2.75;;;;;;;21.27;41.60;96602.31;5097814;28;20052;-87
2023/05/31 08:48:09;;;;;;;7.72;2.83;;;;;;;21.49;38.21;96609.66;5099381;28;20501;-85
2023/05/31 08:50:36;;;;;;;5.85;2.55;;;;;;;21.38;37.54;96603.22;5099266;28;20147;-85
2023/05/31 08:53:03;;;;;;;7.80;2.33;;;;;;;21.51;37.66;96612.06;5098843;28;20044;-85
2023/05/31 08:55:31;;;;;;;4.57;2.08;;;;;;;21.81;38.55;96598.00;5098338;28;20044;-85
2023/05/31 08:57:59;;;;;;;6.18;2.30;;;;;;;21.83;38.30;96602.00;5099983;28;20055;-85
2023/05/31 09:00:26;;;;;;;6.07;2.00;;;;;;;21.91;40.98;96591.75;5098175;28;20043;-87
2023/05/31 09:02:53;;;;;;;6.88;2.35;;;;;;;21.91;37.11;96597.28;5099267;28;20421;-86
2023/05/31 09:05:20;;;;;;;7.45;2.45;;;;;;;21.98;36.95;96602.91;5099444;28;20047;-85
2023/05/31 09:07:49;;;;;;;6.63;2.40;;;;;;;21.58;35.10;96610.13;5099312;28;20055;-85
2023/05/31 09:10:16;;;;;;;5.10;2.40;;;;;;;21.20;36.01;96591.16;5094760;28;20070;-86
2023/05/31 09:12:44;;;;;;;6.90;2.60;;;;;;;21.47;36.72;96595.38;5098931;28;20056;-85
2023/05/31 09:15:15;;;;;;;7.38;2.50;;;;;;;21.80;38.96;96600.00;5100567;28;20094;-85
2023/05/31 09:17:43;;;;;;;6.40;2.50;;;;;;;21.96;36.62;96596.13;5106670;28;20052;-85
2023/05/31 09:20:11;;;;;;;6.28;2.60;;;;;;;21.97;36.17;96590.19;5107531;28;20074;-85
2023/05/31 09:22:38;;;;;;;12.68;3.55;;;;;;;21.95;35.90;96594.56;5108819;28;20071;-82
2023/05/31 09:25:05;;;;;;;9.57;2.95;;;;;;;22.28;38.78;96583.28;5108284;28;20054;-87
2023/05/31 09:27:36;;;;;;;8.80;2.65;;;;;;;22.16;36.28;96591.94;5108644;28;20060;-85
2023/05/31 09:30:08;;;;;;;18.27;3.95;;;;;;;22.25;37.32;96594.38;5103896;28;20082;-85
2023/05/31 09:32:36;;;;;;;6.88;2.80;;;;;;;22.05;35.46;96597.38;5098289;28;20036;-86
2023/05/31 09:35:13;;;;;;;11.00;3.28;;;;;;;21.98;35.48;96579.91;5098068;28;20089;-86
2023/05/31 09:37:44;;;;;;;8.80;3.20;;;;;;;22.36;39.51;96579.34;5097081;28;20063;-85
2023/05/31 09:40:13;;;;;;;6.13;2.60;;;;;;;22.16;35.14;96588.38;5097767;28;20463;-85
2023/05/31 09:42:47;;;;;;;7.10;2.65;;;;;;;22.29;35.04;96575.75;5098486;28;20056;-86
2023/05/31 09:45:15;;;;;;;6.22;2.20;;;;;;;22.20;35.80;96575.31;5098839;28;20055;-85
2023/05/31 09:47:41;;;;;;;5.30;2.30;;;;;;;22.45;37.08;96576.25;5099276;28;20055;-85
2023/05/31 09:50:10;;;;;;;7.70;2.58;;;;;;;22.29;35.00;96575.75;5097081;28;20048;-85
2023/05/31 09:52:38;;;;;;;9.82;3.05;;;;;;;22.32;36.13;96570.22;5098232;28;20063;-83
2023/05/31 09:55:09;;;;;;;6.20;2.25;;;;;;;22.57;35.27;96578.66;5097234;28;20047;-84
2023/05/31 09:57:41;;;;;;;6.55;2.55;;;;;;;22.32;33.82;96574.97;5096714;28;20483;-86
2023/05/31 10:00:15;;;;;;;6.18;2.58;;;;;;;22.40;35.06;96579.38;5087007;28;20036;-85
2023/05/31 10:03:20;;;;;;;9.32;3.08;;;;;;;22.63;34.59;96568.75;5105335;28;20048;-84
2023/05/31 10:06:21;;;;;;;6.68;2.53;;;;;;;22.48;34.81;96571.88;5082093;28;20051;-87
2023/05/31 10:11:18;;;;;;;8.70;2.63;;;;;;;22.76;36.42;96573.94;5067208;28;20106;-74
2023/05/31 10:13:47;;;;;;;7.75;2.60;;;;;;;22.72;34.02;96573.16;5068780;28;20044;-74
2023/05/31 10:16:16;;;;;;;8.75;2.45;;;;;;;22.78;34.32;96577.13;5068338;28;20045;-73
2023/05/31 10:18:46;;;;;;;8.75;2.80;;;;;;;22.65;33.60;96569.16;5068602;28;20060;-74
2023/05/31 10:21:22;;;;;;;6.20;2.88;;;;;;;22.78;35.35;96560.47;5069304;28;20130;-74
2023/05/31 10:23:57;;;;;;;7.78;2.50;;;;;;;22.60;36.12;96561.22;5068038;28;20047;-74
2023/05/31 10:26:31;;;;;;;5.45;2.65;;;;;;;22.75;35.46;96566.81;5067367;28;20068;-74
2023/05/31 10:29:06;;;;;;;4.18;2.28;;;;;;;22.81;34.76;96559.69;5067130;28;20052;-73
2023/05/31 10:31:42;;;;;;;7.72;2.55;;;;;;;22.84;36.37;96564.47;5070546;28;20043;-73
2023/05/31 10:34:16;;;;;;;5.50;2.35;;;;;;;23.10;37.54;96550.25;5072278;28;20191;-74
2023/05/31 10:36:43;;;;;;;4.82;2.55;;;;;;;22.94;36.79;96557.38;5070439;28;20094;-74
2023/05/31 10:39:15;;;;;;;17.95;3.47;;;;;;;22.79;34.33;96550.97;5070856;28;20044;-74
2023/05/31 10:41:45;;;;;;;6.80;3.13;;;;;;;22.66;33.25;96548.56;5070329;28;20048;-74
2023/05/31 10:44:18;;;;;;;8.20;2.72;;;;;;;22.87;33.95;96563.69;5069225;28;20037;-74
2023/05/31 10:46:49;;;;;;;11.05;3.03;;;;;;;22.89;36.82;96547.44;5069241;28;20048;-74
2023/05/31 10:49:19;;;;;;;9.27;3.13;;;;;;;22.99;33.98;96552.22;5069107;28;20071;-74
2023/05/31 10:51:47;;;;;;;8.90;2.60;;;;;;;22.86;32.68;96548.97;5069190;28;20127;-74
2023/05/31 10:54:19;;;;;;;7.68;3.08;;;;;;;22.97;33.32;96551.00;5048086;28;20052;-74
2023/05/31 10:56:53;;;;;;;7.27;2.90;;;;;;;22.98;35.43;96541.53;5048914;28;20048;-74
2023/05/31 10:59:19;;;;;;;6.38;2.83;;;;;;;23.13;34.43;96540.34;5049523;28;20045;-74
2023/05/31 11:01:46;;;;;;;13.88;3.20;;;;;;;23.00;34.25;96542.69;5048839;28;20488;-73
2023/05/31 11:04:21;;;;;;;9.90;3.33;;;;;;;22.84;35.17;96540.25;5049231;28;20041;-74
2023/05/31 11:06:48;;;;;;;8.98;3.40;;;;;;;23.11;35.83;96535.16;5044403;28;20049;-74
2023/05/31 11:09:15;;;;;;;9.65;3.40;;;;;;;22.98;34.13;96541.53;5043767;28;20048;-74
2023/05/31 11:11:47;;;;;;;8.18;3.20;;;;;;;22.90;34.47;96535.94;5048093;28;20049;-74
2023/05/31 11:14:31;;;;;;;8.17;2.90;;;;;;;22.96;33.55;96530.78;5046965;28;20048;-73
2023/05/31 11:17:14;;;;;;;6.57;3.40;;;;;;;22.61;33.91;96529.50;5048644;28;20045;-72
2023/05/31 11:19:43;;;;;;;7.28;3.17;;;;;;;22.86;35.40;96528.75;5045590;28;20056;-73
2023/05/31 11:22:11;;;;;;;8.63;3.13;;;;;;;22.95;34.84;96537.53;5048311;28;20047;-73
2023/05/31 11:24:39;;;;;;;8.20;3.28;;;;;;;23.18;37.74;96529.63;5048879;28;20072;-74
2023/05/31 11:27:07;;;;;;;6.90;3.08;;;;;;;23.16;35.01;96525.66;5046720;28;20037;-74
2023/05/31 11:30:01;;;;;;;7.82;3.13;;;;;;;23.23;36.21;96522.06;5048999;28;20041;-74
2023/05/31 11:32:56;;;;;;;11.30;3.33;;;;;;;23.18;35.00;96524.06;5046977;28;20124;-74
2023/05/31 11:35:25;;;;;;;17.83;4.72;;;;;;;23.15;35.28;96530.41;5047705;28;20049;-74
2023/05/31 11:38:00;;;;;;;16.42;4.57;;;;;;;23.14;34.84;96525.25;5047414;28;20049;-74
2023/05/31 11:40:28;;;;;;;18.95;4.70;;;;;;;22.85;34.15;96513.28;5047081;28;20051;-74